createdAt,value
2023-07-25T00:01:49.052Z,28
2023-07-25T00:04:20.392Z,30
2023-07-25T00:06:51.007Z,25
2023-07-25T00:09:21.777Z,28
2023-07-25T00:11:53.668Z,26
2023-07-25T00:14:24.813Z,31
2023-07-25T00:16:55.855Z,32
2023-07-25T00:19:27.405Z,26
2023-07-25T00:21:58.066Z,33
2023-07-25T00:24:29.569Z,27
2023-07-25T00:27:00.567Z,22
2023-07-25T00:29:31.203Z,25
2023-07-25T00:32:03.815Z,29
2023-07-25T00:34:34.944Z,26
2023-07-25T00:37:06.461Z,28
2023-07-25T00:39:38.442Z,23
2023-07-25T00:42:09.160Z,21
2023-07-25T00:44:40.461Z,20
2023-07-25T00:47:11.579Z,25
2023-07-25T00:49:43.183Z,28
2023-07-25T00:52:14.768Z,24
2023-07-25T00:54:45.734Z,14
2023-07-25T00:57:16.747Z,25
2023-07-25T00:59:48.177Z,30
2023-07-25T01:02:18.844Z,21
2023-07-25T01:04:50.262Z,28
2023-07-25T01:07:21.620Z,32
2023-07-25T01:09:52.403Z,23
2023-07-25T01:12:23.542Z,24
2023-07-25T01:14:54.800Z,25
2023-07-25T01:17:25.567Z,21
2023-07-25T01:19:56.266Z,23
2023-07-25T01:22:27.192Z,32
2023-07-25T01:24:58.253Z,23
2023-07-25T01:27:30.296Z,20
2023-07-25T01:30:01.193Z,25
2023-07-25T01:32:31.913Z,22
2023-07-25T01:35:02.915Z,20
2023-07-25T01:37:32.342Z,22
2023-07-25T01:40:03.382Z,26
2023-07-25T01:42:34.551Z,26
2023-07-25T01:45:05.759Z,20
2023-07-25T01:47:36.836Z,20
2023-07-25T01:50:07.821Z,29
2023-07-25T01:52:38.652Z,27
2023-07-25T01:55:09.735Z,27
2023-07-25T01:57:41.313Z,24
2023-07-25T02:00:12.365Z,27
2023-07-25T02:02:43.391Z,21
2023-07-25T02:05:14.785Z,26
2023-07-25T02:07:47.145Z,28
2023-07-25T02:10:18.034Z,27
2023-07-25T02:12:48.913Z,28
2023-07-25T02:15:18.357Z,36
2023-07-25T02:17:49.980Z,23
2023-07-25T02:20:21.815Z,23
2023-07-25T02:22:53.136Z,22
2023-07-25T02:25:24.418Z,24
2023-07-25T02:27:55.757Z,30
2023-07-25T02:30:26.540Z,27
2023-07-25T02:32:57.453Z,24
2023-07-25T02:35:28.412Z,27
2023-07-25T02:37:59.085Z,27
2023-07-25T02:40:29.740Z,25
2023-07-25T02:43:00.738Z,27
2023-07-25T02:45:31.624Z,21
2023-07-25T02:48:02.592Z,28
2023-07-25T02:50:33.704Z,27
2023-07-25T02:53:04.562Z,24
2023-07-25T02:55:35.338Z,33
2023-07-25T02:58:05.756Z,23
2023-07-25T03:00:35.630Z,44
2023-07-25T03:03:06.339Z,24
2023-07-25T03:05:37.671Z,32
2023-07-25T03:08:08.690Z,28
2023-07-25T03:10:39.584Z,29
2023-07-25T03:13:10.527Z,25
2023-07-25T03:15:41.929Z,24
2023-07-25T03:18:13.783Z,24
2023-07-25T03:20:44.799Z,24
2023-07-25T03:23:16.282Z,27
2023-07-25T03:25:47.686Z,29
2023-07-25T03:28:18.411Z,26
2023-07-25T03:30:49.438Z,23
2023-07-25T03:33:20.640Z,29
2023-07-25T03:35:51.939Z,26
2023-07-25T03:38:22.550Z,29
2023-07-25T03:40:53.193Z,27
2023-07-25T03:43:24.687Z,28
2023-07-25T03:45:55.671Z,21
2023-07-25T03:48:26.580Z,25
2023-07-25T03:50:57.551Z,26
2023-07-25T03:53:28.364Z,27
2023-07-25T03:55:59.137Z,35
2023-07-25T03:58:30.251Z,23
2023-07-25T04:01:00.288Z,33
2023-07-25T04:03:31.241Z,39
2023-07-25T04:06:02.028Z,28
2023-07-25T04:08:33.171Z,28
2023-07-25T04:11:03.891Z,24
2023-07-25T04:13:34.736Z,32
2023-07-25T04:16:05.299Z,27
2023-07-25T04:18:36.544Z,31
2023-07-25T04:21:07.918Z,32
2023-07-25T04:23:38.461Z,35
2023-07-25T04:26:09.944Z,24
2023-07-25T04:28:40.839Z,34
2023-07-25T04:31:12.076Z,29
2023-07-25T04:33:43.168Z,41
2023-07-25T04:36:14.255Z,44
2023-07-25T04:38:45.366Z,55
2023-07-25T04:41:16.047Z,35
2023-07-25T04:43:47.385Z,31
2023-07-25T04:46:18.103Z,35
2023-07-25T04:48:49.322Z,42
2023-07-25T04:51:20.442Z,45
2023-07-25T04:53:51.234Z,35
2023-07-25T04:56:22.379Z,58
2023-07-25T04:58:53.226Z,38
2023-07-25T05:01:24.072Z,37
2023-07-25T05:03:55.567Z,50
2023-07-25T05:06:26.298Z,42
2023-07-25T05:08:57.963Z,52
2023-07-25T05:11:29.128Z,28
2023-07-25T05:14:00.763Z,52
2023-07-25T05:16:31.704Z,40
2023-07-25T05:19:03.439Z,38
2023-07-25T05:21:35.477Z,34
2023-07-25T05:24:06.269Z,52
2023-07-25T05:26:37.182Z,44
2023-07-25T05:29:08.236Z,32
2023-07-25T05:31:38.732Z,45
2023-07-25T05:34:10.148Z,47
2023-07-25T05:36:40.906Z,45
2023-07-25T05:39:12.715Z,46
2023-07-25T05:41:44.158Z,36
2023-07-25T05:44:15.702Z,43
2023-07-25T05:46:46.264Z,36
2023-07-25T05:49:17.500Z,37
2023-07-25T05:51:48.556Z,44
2023-07-25T05:54:19.688Z,44
2023-07-25T05:56:55.409Z,46
2023-07-25T05:59:24.801Z,43
2023-07-25T06:01:55.893Z,43
2023-07-25T06:04:26.625Z,44
2023-07-25T06:06:57.222Z,49
2023-07-25T06:09:28.863Z,52
2023-07-25T06:11:59.300Z,42
2023-07-25T06:14:30.442Z,43
2023-07-25T06:17:01.616Z,41
2023-07-25T06:19:33.048Z,40
2023-07-25T06:22:04.048Z,42
2023-07-25T06:24:35.123Z,47
2023-07-25T06:27:05.959Z,47
2023-07-25T06:29:36.944Z,42
2023-07-25T06:32:08.599Z,46
2023-07-25T06:34:39.371Z,46
2023-07-25T06:37:10.617Z,40
2023-07-25T06:39:41.492Z,49
2023-07-25T06:42:12.214Z,40
2023-07-25T06:44:42.515Z,38
2023-07-25T06:47:13.638Z,42
2023-07-25T06:49:45.223Z,40
2023-07-25T06:52:16.785Z,35
2023-07-25T06:54:47.141Z,36
2023-07-25T06:57:17.658Z,43
2023-07-25T06:59:48.676Z,39
2023-07-25T07:02:19.897Z,39
2023-07-25T07:04:50.687Z,41
2023-07-25T07:07:21.361Z,43
2023-07-25T07:09:52.847Z,34
2023-07-25T07:12:23.570Z,49
2023-07-25T07:14:54.319Z,41
2023-07-25T07:17:25.734Z,30
2023-07-25T07:19:56.237Z,34
2023-07-25T07:22:26.718Z,36
2023-07-25T07:24:58.418Z,34
2023-07-25T07:27:28.885Z,31
2023-07-25T07:30:00.009Z,34
2023-07-25T07:32:30.690Z,31
2023-07-25T07:35:01.453Z,29
2023-07-25T07:37:34.475Z,35
2023-07-25T07:40:03.671Z,32
2023-07-25T07:42:34.398Z,36
2023-07-25T07:45:06.610Z,32
2023-07-25T07:47:37.685Z,35
2023-07-25T07:50:08.417Z,30
2023-07-25T07:52:42.901Z,30
2023-07-25T07:55:10.706Z,25
2023-07-25T07:57:42.178Z,31
2023-07-25T08:00:13.144Z,29
2023-07-25T08:02:44.869Z,32
2023-07-25T08:05:15.752Z,28
2023-07-25T08:07:46.946Z,27
2023-07-25T08:10:18.099Z,28
2023-07-25T08:12:49.274Z,36
2023-07-25T08:15:19.900Z,29
2023-07-25T08:17:50.153Z,37
2023-07-25T08:20:21.011Z,32
2023-07-25T08:22:51.673Z,28
2023-07-25T08:25:22.709Z,32
2023-07-25T08:27:55.622Z,34
2023-07-25T08:30:25.074Z,33
2023-07-25T08:32:55.792Z,35
2023-07-25T08:35:26.521Z,49
2023-07-25T08:37:57.632Z,28
2023-07-25T08:40:28.486Z,35
2023-07-25T08:43:01.509Z,28
2023-07-25T08:45:32.688Z,24
2023-07-25T08:48:03.490Z,29
2023-07-25T08:50:32.635Z,31
2023-07-25T08:53:04.132Z,28
2023-07-25T08:55:35.566Z,29
2023-07-25T08:58:06.678Z,28
2023-07-25T09:00:37.347Z,29
2023-07-25T09:03:08.276Z,28
2023-07-25T09:05:38.880Z,26
2023-07-25T09:08:09.606Z,27
2023-07-25T09:10:40.489Z,27
2023-07-25T09:13:11.303Z,27
2023-07-25T09:15:42.375Z,25
2023-07-25T09:18:12.950Z,26
2023-07-25T09:20:43.969Z,23
2023-07-25T09:23:14.837Z,23
2023-07-25T09:25:48.797Z,20
2023-07-25T09:28:19.582Z,25
2023-07-25T09:30:50.668Z,28
2023-07-25T09:33:21.321Z,26
2023-07-25T09:35:54.182Z,32
2023-07-25T09:38:25.035Z,34
2023-07-25T09:40:55.561Z,23
2023-07-25T09:43:26.430Z,27
2023-07-25T09:45:57.109Z,19
2023-07-25T09:48:27.483Z,23
2023-07-25T09:50:57.868Z,23
2023-07-25T09:53:29.819Z,20
2023-07-25T09:56:01.044Z,20
2023-07-25T09:58:31.746Z,23
2023-07-25T10:01:02.451Z,24
2023-07-25T10:03:32.900Z,25
2023-07-25T10:06:03.711Z,20
2023-07-25T10:08:34.224Z,26
2023-07-25T10:11:04.919Z,34
2023-07-25T10:13:35.927Z,28
2023-07-25T10:16:06.818Z,31
2023-07-25T10:18:37.398Z,27
2023-07-25T10:21:06.448Z,32
2023-07-25T10:23:37.575Z,21
2023-07-25T10:26:10.246Z,28
2023-07-25T10:28:40.048Z,20
2023-07-25T10:31:10.935Z,21
2023-07-25T10:33:41.823Z,42
2023-07-25T10:36:12.576Z,27
2023-07-25T10:38:42.990Z,28
2023-07-25T10:41:20.780Z,21
2023-07-25T10:43:51.641Z,25
2023-07-25T10:46:22.118Z,27
2023-07-25T10:48:53.183Z,33
2023-07-25T10:51:24.515Z,25
2023-07-25T10:53:55.560Z,28
2023-07-25T10:56:25.976Z,20
2023-07-25T10:58:57.307Z,20
2023-07-25T11:01:28.518Z,26
2023-07-25T11:03:59.250Z,37
2023-07-25T11:06:31.228Z,33
2023-07-25T11:09:02.007Z,34
2023-07-25T11:11:32.854Z,31
2023-07-25T11:14:03.251Z,23
2023-07-25T11:16:32.462Z,22
2023-07-25T11:19:03.821Z,23
2023-07-25T11:21:35.383Z,20
2023-07-25T11:24:06.136Z,19
2023-07-25T11:26:37.490Z,22
2023-07-25T11:29:10.585Z,20
2023-07-25T11:31:41.397Z,21
2023-07-25T11:34:12.078Z,20
2023-07-25T11:36:42.595Z,24
2023-07-25T11:39:13.374Z,23
2023-07-25T11:41:44.928Z,22
2023-07-25T11:44:15.781Z,17
2023-07-25T11:46:46.306Z,23
2023-07-25T11:49:18.631Z,24
2023-07-25T11:51:47.535Z,21
2023-07-25T11:54:18.671Z,16
2023-07-25T11:56:49.628Z,17
2023-07-25T11:59:20.497Z,21
2023-07-25T12:01:51.057Z,21
2023-07-25T12:04:21.794Z,20
2023-07-25T12:06:52.769Z,16
2023-07-25T12:09:24.002Z,21
2023-07-25T12:11:54.732Z,17
2023-07-25T12:14:25.698Z,19
2023-07-25T12:16:56.098Z,20
2023-07-25T12:19:25.248Z,36
2023-07-25T12:21:55.853Z,20
2023-07-25T12:24:27.510Z,21
2023-07-25T12:26:57.933Z,23
2023-07-25T12:29:28.757Z,16
2023-07-25T12:31:59.239Z,18
2023-07-25T12:34:29.548Z,20
2023-07-25T12:37:00.338Z,24
2023-07-25T12:39:31.108Z,25
2023-07-25T12:42:02.491Z,24
2023-07-25T12:44:33.000Z,24
2023-07-25T12:47:03.910Z,21
2023-07-25T12:49:35.060Z,23
2023-07-25T12:52:05.697Z,15
2023-07-25T12:54:36.138Z,17
2023-07-25T12:57:08.727Z,21
2023-07-25T12:59:40.282Z,17
2023-07-25T13:02:10.841Z,22
2023-07-25T13:04:41.642Z,14
2023-07-25T13:07:12.161Z,19
2023-07-25T13:09:42.833Z,23
2023-07-25T13:12:13.554Z,19
2023-07-25T13:14:44.504Z,17
2023-07-25T13:17:14.922Z,17
2023-07-25T13:19:45.951Z,15
2023-07-25T13:22:16.417Z,17
2023-07-25T13:24:47.212Z,15
2023-07-25T13:27:17.656Z,21
2023-07-25T13:29:48.151Z,21
2023-07-25T13:32:19.637Z,16
2023-07-25T13:34:50.174Z,18
2023-07-25T13:37:20.775Z,17
2023-07-25T13:39:51.269Z,20
2023-07-25T13:42:21.839Z,19
2023-07-25T13:44:52.500Z,13
2023-07-25T13:47:22.700Z,8
2023-07-25T13:49:53.168Z,17
2023-07-25T13:52:25.366Z,19
2023-07-25T13:54:55.928Z,12
2023-07-25T13:57:32.130Z,15
2023-07-25T13:59:57.553Z,17
2023-07-25T14:02:28.276Z,20
2023-07-25T14:04:59.151Z,16
2023-07-25T14:07:29.764Z,9
2023-07-25T14:10:00.344Z,15
2023-07-25T14:12:30.780Z,16
2023-07-25T14:15:01.185Z,16
2023-07-25T14:17:30.324Z,20
2023-07-25T14:20:00.917Z,14
2023-07-25T14:22:31.883Z,20
2023-07-25T14:25:03.089Z,12
2023-07-25T14:27:33.690Z,12
2023-07-25T14:30:03.922Z,15
2023-07-25T14:32:34.595Z,12
2023-07-25T14:35:05.165Z,10
2023-07-25T14:37:48.568Z,13
2023-07-25T14:40:06.017Z,15
2023-07-25T14:42:36.694Z,15
2023-07-25T14:45:07.732Z,12
2023-07-25T14:47:38.459Z,17
2023-07-25T14:50:10.611Z,18
2023-07-25T14:52:41.271Z,15
2023-07-25T14:55:11.898Z,19
2023-07-25T14:57:43.342Z,12
2023-07-25T15:00:13.674Z,14
2023-07-25T15:02:44.479Z,13
2023-07-25T15:05:15.352Z,12
2023-07-25T15:07:45.887Z,17
2023-07-25T15:10:16.441Z,16
2023-07-25T15:12:47.590Z,19
2023-07-25T15:15:17.970Z,19
2023-07-25T15:17:50.012Z,8
2023-07-25T15:20:20.831Z,22
2023-07-25T15:22:52.066Z,16
2023-07-25T15:25:22.504Z,12
2023-07-25T15:27:53.408Z,13
2023-07-25T15:30:24.561Z,10
2023-07-25T15:32:55.218Z,13
2023-07-25T15:35:25.669Z,15
2023-07-25T15:37:56.257Z,16
2023-07-25T15:40:27.257Z,16
2023-07-25T15:42:57.897Z,13
2023-07-25T15:45:28.294Z,21
2023-07-25T15:47:59.290Z,17
2023-07-25T15:50:29.884Z,19
2023-07-25T15:53:00.514Z,17
2023-07-25T15:55:30.967Z,13
2023-07-25T15:58:01.672Z,20
2023-07-25T16:00:33.001Z,16
2023-07-25T16:03:03.812Z,16
2023-07-25T16:05:34.346Z,15
2023-07-25T16:08:05.472Z,10
2023-07-25T16:10:36.403Z,15
2023-07-25T16:13:07.209Z,16
2023-07-25T16:15:38.083Z,16
2023-07-25T16:18:08.636Z,15
2023-07-25T16:20:39.389Z,12
2023-07-25T16:23:09.953Z,11
2023-07-25T16:25:40.488Z,12
2023-07-25T16:28:10.949Z,9
2023-07-25T16:30:41.523Z,12
2023-07-25T16:33:12.464Z,9
2023-07-25T16:35:42.823Z,13
2023-07-25T16:38:13.544Z,13
2023-07-25T16:40:44.134Z,15
2023-07-25T16:43:14.618Z,15
2023-07-25T16:45:44.992Z,11
2023-07-25T16:48:15.602Z,13
2023-07-25T16:50:46.470Z,16
2023-07-25T16:53:18.124Z,15
2023-07-25T16:55:48.715Z,11
2023-07-25T16:58:19.303Z,16
2023-07-25T17:00:49.837Z,13
2023-07-25T17:03:20.273Z,20
2023-07-25T17:05:50.915Z,13
2023-07-25T17:08:21.343Z,16
2023-07-25T17:10:51.781Z,15
2023-07-25T17:13:22.334Z,11
2023-07-25T17:15:52.867Z,15
2023-07-25T17:18:23.360Z,13
2023-07-25T17:20:53.873Z,16
2023-07-25T17:23:24.118Z,11
2023-07-25T17:25:55.176Z,11
2023-07-25T17:28:25.811Z,16
2023-07-25T17:30:56.437Z,12
2023-07-25T17:33:26.838Z,23
2023-07-25T17:35:57.224Z,18
2023-07-25T17:38:27.949Z,20
2023-07-25T17:40:58.427Z,13
2023-07-25T17:43:29.134Z,20
2023-07-25T17:45:59.649Z,21
2023-07-25T17:48:29.977Z,12
2023-07-25T17:51:00.526Z,19
2023-07-25T17:53:30.897Z,14
2023-07-25T17:56:01.354Z,21
2023-07-25T17:58:31.783Z,29
2023-07-25T18:01:02.563Z,24
2023-07-25T18:03:33.220Z,16
2023-07-25T18:06:03.830Z,13
2023-07-25T18:08:35.096Z,21
2023-07-25T18:11:03.412Z,13
2023-07-25T18:13:34.099Z,28
2023-07-25T18:16:04.732Z,19
2023-07-25T18:18:35.401Z,28
2023-07-25T18:21:07.870Z,12
2023-07-25T18:23:37.077Z,12
2023-07-25T18:26:07.529Z,16
2023-07-25T18:28:38.019Z,13
2023-07-25T18:31:08.794Z,16
2023-07-25T18:33:39.010Z,17
2023-07-25T18:36:10.603Z,16
2023-07-25T18:38:43.548Z,11
2023-07-25T18:41:14.042Z,14
2023-07-25T18:43:43.998Z,10
2023-07-25T18:46:15.106Z,16
2023-07-25T18:48:45.977Z,20
2023-07-25T18:51:16.945Z,16
2023-07-25T18:53:47.778Z,8
2023-07-25T18:56:19.375Z,14
2023-07-25T18:58:49.841Z,16
2023-07-25T19:01:21.565Z,14
2023-07-25T19:03:52.154Z,13
2023-07-25T19:06:22.611Z,15
2023-07-25T19:08:53.220Z,11
2023-07-25T19:11:23.773Z,15
2023-07-25T19:13:54.856Z,17
2023-07-25T19:16:25.466Z,20
2023-07-25T19:18:56.270Z,26
2023-07-25T19:21:26.839Z,20
2023-07-25T19:23:57.128Z,15
2023-07-25T19:26:27.536Z,15
2023-07-25T19:29:00.427Z,9
2023-07-25T19:31:29.364Z,12
2023-07-25T19:34:00.062Z,13
2023-07-25T19:36:30.730Z,15
2023-07-25T19:39:01.192Z,11
2023-07-25T19:41:31.708Z,12
2023-07-25T19:44:02.049Z,11
2023-07-25T19:46:32.789Z,15
2023-07-25T19:49:03.146Z,12
2023-07-25T19:51:34.715Z,13
2023-07-25T19:54:05.386Z,19
2023-07-25T19:56:36.180Z,11
2023-07-25T19:59:07.605Z,15
2023-07-25T20:01:40.331Z,8
2023-07-25T20:04:10.709Z,17
2023-07-25T20:06:41.202Z,15
2023-07-25T20:09:12.064Z,13
2023-07-25T20:11:42.345Z,16
2023-07-25T20:14:12.944Z,20
2023-07-25T20:16:43.304Z,13
2023-07-25T20:19:14.800Z,13
2023-07-25T20:21:45.408Z,17
2023-07-25T20:24:15.948Z,12
2023-07-25T20:26:46.065Z,12
2023-07-25T20:29:16.714Z,15
2023-07-25T20:31:47.398Z,11
2023-07-25T20:34:17.786Z,19
2023-07-25T20:36:48.197Z,13
2023-07-25T20:39:18.670Z,15
2023-07-25T20:41:49.386Z,15
2023-07-25T20:44:19.807Z,21
2023-07-25T20:46:50.418Z,11
2023-07-25T20:49:23.010Z,15
2023-07-25T20:51:53.577Z,13
2023-07-25T20:54:24.379Z,16
2023-07-25T20:56:54.894Z,13
2023-07-25T20:59:25.939Z,19
2023-07-25T21:01:56.414Z,13
2023-07-25T21:04:28.854Z,12
2023-07-25T21:06:58.250Z,15
2023-07-25T21:09:28.846Z,19
2023-07-25T21:11:59.235Z,15
2023-07-25T21:14:29.807Z,15
2023-07-25T21:17:00.479Z,12
2023-07-25T21:19:31.192Z,13
2023-07-25T21:22:01.607Z,15
2023-07-25T21:24:35.149Z,21
2023-07-25T21:27:06.269Z,15
2023-07-25T21:29:36.879Z,13
2023-07-25T21:32:07.981Z,24
2023-07-25T21:34:39.096Z,22
2023-07-25T21:37:09.693Z,16
2023-07-25T21:39:40.464Z,21
2023-07-25T21:42:11.570Z,17
2023-07-25T21:44:42.402Z,16
2023-07-25T21:47:13.582Z,13
2023-07-25T21:49:44.301Z,17
2023-07-25T21:52:16.446Z,14
2023-07-25T21:54:47.240Z,15
2023-07-25T21:57:17.658Z,12
2023-07-25T21:59:48.327Z,9
2023-07-25T22:05:22.291Z,12
2023-07-25T22:07:52.586Z,13
2023-07-25T22:10:25.055Z,12
2023-07-25T22:12:55.953Z,16
2023-07-25T22:15:27.484Z,13
2023-07-25T22:17:59.488Z,16
2023-07-25T22:20:35.140Z,11
2023-07-25T22:23:01.726Z,17
2023-07-25T22:25:32.656Z,8
2023-07-25T22:28:03.199Z,12
2023-07-25T22:30:35.219Z,8
2023-07-25T22:33:05.725Z,15
2023-07-25T22:35:39.269Z,16
2023-07-25T22:38:09.688Z,15
2023-07-25T22:40:41.508Z,15
2023-07-25T22:43:12.212Z,17
2023-07-25T22:45:43.279Z,14
2023-07-25T22:48:15.767Z,14
2023-07-25T22:50:46.900Z,9
2023-07-25T22:53:19.971Z,13
2023-07-25T22:55:51.687Z,12
2023-07-25T22:58:24.175Z,12
2023-07-25T23:00:55.394Z,12
2023-07-25T23:03:27.299Z,14
2023-07-25T23:05:59.644Z,17
2023-07-25T23:08:30.599Z,15
2023-07-25T23:11:01.459Z,11
2023-07-25T23:13:35.631Z,11
2023-07-25T23:16:08.509Z,16
2023-07-25T23:18:42.351Z,9
2023-07-25T23:21:14.676Z,12
2023-07-25T23:23:45.637Z,13
2023-07-25T23:26:16.707Z,15
2023-07-25T23:28:47.464Z,11
2023-07-25T23:31:19.456Z,14
2023-07-25T23:33:49.930Z,7
2023-07-25T23:36:21.658Z,15
2023-07-25T23:38:52.733Z,9
2023-07-25T23:41:23.264Z,13
2023-07-25T23:43:54.596Z,12
2023-07-25T23:46:25.571Z,16
2023-07-25T23:48:57.954Z,12
2023-07-25T23:51:29.385Z,12
2023-07-25T23:54:02.189Z,8
2023-07-25T23:56:33.354Z,13
2023-07-25T23:59:04.213Z,16
